»·PEaware :: N4657 KVNY-KSNA

N4657 :: KVNY-KSNA

FLIGHT INFORMATION

Flight Status: Arrived
Operator: Privately registered:
United States
More flights under this callsign
Pilot: Daniel P. (20187)
Aircraft: PILATUS PC-12 EAGLE
(PC12)
More flights by this aircraft type
Origin: KVNY Van Nuys
United States
Destination: KSNA John Wayne-Orange Co
United States
More flights between these airports :: More routes between these airports
Route:
File this flight plan on PilotEdge
Remarks: cat10
Altitude:
(Current/Filed)
5,500ft
Speed:
(Current/Filed)
150kts
Departed: 04-Sep-18 11:40 AM
Arrived: 04-Sep-18 02:11 PM
Distance/Time
Traveled:
44nm/2:31
Distance/Time
To Go:
Arrived

Flight Plot

Page will automatically refresh every two minutes.


Map Options




Map Legend


Flown Route
Filed Route
Departure Airport
Arrival Airport
Navaid (VOR, NDB)
Fix

Horizontal Profiles

Position Reports

Time Latitude Longitude Heading Altitude Ground
Speed
04-Sep-18 11:28 34.208430 -118.491894 70 806ft 0kts
04-Sep-18 11:29 34.208430 -118.491894 70 806ft 0kts
04-Sep-18 11:30 34.208430 -118.491894 70 806ft 0kts
04-Sep-18 11:31 34.208430 -118.491894 70 806ft 0kts
04-Sep-18 11:32 34.208430 -118.491894 70 806ft 0kts
04-Sep-18 11:33 34.208430 -118.491894 70 806ft 0kts
04-Sep-18 11:34 34.208430 -118.491894 70 806ft 0kts
04-Sep-18 11:35 34.209617 -118.491551 356 806ft 19kts
04-Sep-18 11:36 34.214336 -118.491978 354 806ft 14kts
04-Sep-18 11:37 34.217847 -118.492304 357 806ft 8kts
04-Sep-18 11:38 34.218653 -118.492191 48 806ft 0kts
04-Sep-18 11:39 34.218653 -118.492191 48 806ft 0kts
04-Sep-18 11:40 34.218355 -118.491188 174 806ft 2kts
04-Sep-18 11:41 34.194437 -118.488840 175 1727ft 114kts
04-Sep-18 11:42 34.165915 -118.498811 203 3386ft 97kts
04-Sep-18 11:43 34.141526 -118.515445 212 4644ft 112kts
04-Sep-18 11:44 34.115120 -118.540058 240 5495ft 139kts
04-Sep-18 11:45 34.138917 -118.573947 340 5499ft 158kts
04-Sep-18 11:46 34.181622 -118.587876 347 5499ft 159kts
04-Sep-18 11:47 34.221290 -118.597988 347 5445ft 129kts
04-Sep-18 11:48 34.231090 -118.632980 237 4759ft 133kts
04-Sep-18 11:49 34.200506 -118.649853 178 3813ft 137kts
04-Sep-18 11:50 34.167855 -118.632190 124 2748ft 137kts
04-Sep-18 11:51 34.161106 -118.587168 93 1713ft 137kts
04-Sep-18 11:52 34.164371 -118.544629 73 1293ft 110kts
04-Sep-18 11:53 34.184441 -118.521563 40 1297ft 97kts
04-Sep-18 11:54 34.208461 -118.509174 358 1607ft 101kts
04-Sep-18 11:55 34.239113 -118.512261 353 1803ft 123kts
04-Sep-18 11:56 34.265056 -118.501977 93 1757ft 125kts
04-Sep-18 11:57 34.234420 -118.492811 174 1227ft 120kts
04-Sep-18 11:58 34.209008 -118.490519 201 806ft 27kts
04-Sep-18 11:59 34.208193 -118.491020 205 806ft 0kts
04-Sep-18 12:00 34.208193 -118.491020 205 806ft 0kts
04-Sep-18 12:01 34.208193 -118.491020 205 806ft 0kts
04-Sep-18 12:02 34.208193 -118.491020 205 806ft 0kts
04-Sep-18 12:03 34.208601 -118.491908 257 806ft 8kts
04-Sep-18 12:04 34.208899 -118.491890 81 806ft 0kts
04-Sep-18 12:05 34.208899 -118.491890 81 806ft 0kts
04-Sep-18 12:07 34.208899 -118.491890 81 806ft 0kts
04-Sep-18 12:08 34.208899 -118.491890 81 806ft 0kts
04-Sep-18 12:09 34.208899 -118.491890 81 806ft 0kts
04-Sep-18 12:10 34.208899 -118.491890 81 806ft 0kts
04-Sep-18 12:11 34.208899 -118.491890 81 806ft 0kts
04-Sep-18 12:12 34.208899 -118.491890 81 806ft 0kts
04-Sep-18 12:13 34.208899 -118.491890 81 806ft 0kts
04-Sep-18 12:14 34.208899 -118.491890 81 806ft 0kts
04-Sep-18 12:15 34.208899 -118.491890 81 806ft 0kts
04-Sep-18 12:16 34.208899 -118.491890 81 806ft 0kts
04-Sep-18 12:17 34.208899 -118.491890 81 806ft 0kts
04-Sep-18 12:18 34.208899 -118.491890 81 806ft 0kts
04-Sep-18 12:19 34.208904 -118.491844 80 806ft 2kts
04-Sep-18 12:20 34.211730 -118.491729 356 806ft 12kts
04-Sep-18 12:21 34.215112 -118.492094 347 806ft 11kts
04-Sep-18 12:22 34.218289 -118.492353 357 806ft 10kts
04-Sep-18 12:23 34.218676 -118.492148 51 806ft 0kts
04-Sep-18 12:24 34.218733 -118.491479 117 806ft 9kts
04-Sep-18 12:25 34.196080 -118.489041 175 1303ft 104kts
04-Sep-18 12:26 34.170832 -118.496507 203 2008ft 108kts
04-Sep-18 12:27 34.139977 -118.513734 204 2013ft 123kts
04-Sep-18 12:28 34.114275 -118.527593 191 2262ft 90kts
04-Sep-18 12:29 34.091397 -118.514896 152 2419ft 94kts
04-Sep-18 12:30 34.066206 -118.500229 155 2503ft 108kts
04-Sep-18 12:31 34.037773 -118.485111 156 2490ft 114kts
04-Sep-18 12:32 34.008617 -118.470081 156 3064ft 115kts
04-Sep-18 12:33 33.979425 -118.455207 156 3775ft 112kts
04-Sep-18 12:34 33.950091 -118.440292 156 4905ft 121kts
04-Sep-18 12:35 33.916804 -118.425584 204 5495ft 156kts
04-Sep-18 12:36 33.928199 -118.460154 356 5499ft 163kts
04-Sep-18 12:37 33.973703 -118.457845 3 5444ft 162kts
04-Sep-18 12:38 34.016599 -118.457337 352 4928ft 152kts
04-Sep-18 12:39 34.050485 -118.486482 321 4437ft 151kts
04-Sep-18 12:40 34.083268 -118.517414 321 4005ft 146kts
04-Sep-18 12:41 34.114840 -118.544996 324 3999ft 137kts
04-Sep-18 12:42 34.147131 -118.570748 327 3867ft 141kts
04-Sep-18 12:43 34.180788 -118.592950 329 3494ft 130kts
04-Sep-18 12:44 34.211572 -118.614595 329 2811ft 127kts
04-Sep-18 12:45 34.241405 -118.605261 69 2081ft 119kts
04-Sep-18 12:46 34.247692 -118.570798 79 1812ft 101kts
04-Sep-18 12:47 34.250477 -118.534446 85 1799ft 109kts
04-Sep-18 12:48 34.251439 -118.498612 116 1760ft 104kts
04-Sep-18 12:49 34.222743 -118.491529 175 971ft 108kts
04-Sep-18 12:50 34.206597 -118.490654 265 806ft 3kts
04-Sep-18 12:51 34.206594 -118.490740 267 806ft 0kts
04-Sep-18 12:52 34.208321 -118.491990 304 806ft 8kts
04-Sep-18 12:53 34.208812 -118.492024 82 806ft 0kts
04-Sep-18 12:54 34.208812 -118.492024 82 806ft 0kts
04-Sep-18 12:55 34.208812 -118.492024 82 806ft 0kts
04-Sep-18 12:56 34.208812 -118.492024 82 806ft 0kts
04-Sep-18 12:57 34.208812 -118.492024 82 806ft 0kts
04-Sep-18 12:58 34.208812 -118.492024 82 806ft 0kts
04-Sep-18 12:59 34.208812 -118.492024 82 806ft 0kts
04-Sep-18 13:00 34.208812 -118.492024 82 806ft 0kts
04-Sep-18 13:01 34.208812 -118.492024 82 806ft 0kts
04-Sep-18 13:02 34.208812 -118.492024 82 806ft 0kts
04-Sep-18 13:03 34.208812 -118.492024 82 806ft 0kts
04-Sep-18 13:04 34.208812 -118.492024 82 806ft 0kts
04-Sep-18 13:05 34.208812 -118.492024 82 806ft 0kts
04-Sep-18 13:06 34.208812 -118.492024 82 806ft 0kts
04-Sep-18 13:07 34.208812 -118.492024 82 806ft 0kts
04-Sep-18 13:08 34.208812 -118.492024 82 806ft 0kts
04-Sep-18 13:09 34.208812 -118.492024 82 806ft 0kts
04-Sep-18 13:10 34.208812 -118.492024 82 806ft 0kts
04-Sep-18 13:11 34.208812 -118.492024 82 806ft 0kts
04-Sep-18 13:12 34.208812 -118.492024 82 806ft 0kts
04-Sep-18 13:13 34.208812 -118.492024 82 806ft 0kts
04-Sep-18 13:13 34.208812 -118.492024 82 806ft 0kts
04-Sep-18 13:14 34.208812 -118.492024 82 806ft 0kts
04-Sep-18 13:15 34.208812 -118.492024 82 806ft 0kts
04-Sep-18 13:17 34.208812 -118.492024 82 806ft 0kts
04-Sep-18 13:17 34.208812 -118.492024 82 806ft 0kts
04-Sep-18 13:18 34.208812 -118.492024 82 806ft 0kts
04-Sep-18 13:19 34.208812 -118.492024 82 806ft 0kts
04-Sep-18 13:20 34.208812 -118.492024 82 806ft 0kts
04-Sep-18 13:21 34.208812 -118.492024 82 806ft 0kts
04-Sep-18 13:22 34.208812 -118.492024 82 806ft 0kts
04-Sep-18 13:23 34.208812 -118.492024 82 806ft 0kts
04-Sep-18 13:24 34.208812 -118.492024 82 806ft 0kts
04-Sep-18 13:25 34.208812 -118.492024 82 806ft 0kts
04-Sep-18 13:26 34.208812 -118.492024 82 806ft 0kts
04-Sep-18 13:27 34.208812 -118.492024 82 806ft 0kts
04-Sep-18 13:28 34.208812 -118.492024 82 806ft 0kts
04-Sep-18 13:29 34.208811 -118.492024 82 806ft 0kts
04-Sep-18 13:30 34.208811 -118.492024 82 806ft 0kts
04-Sep-18 13:31 34.208811 -118.492024 82 806ft 0kts
04-Sep-18 13:32 34.208890 -118.491673 61 806ft 6kts
04-Sep-18 13:33 34.212199 -118.491768 353 806ft 13kts
04-Sep-18 13:34 34.215923 -118.492200 354 806ft 13kts
04-Sep-18 13:35 34.218684 -118.492127 56 806ft 0kts
04-Sep-18 13:36 34.218684 -118.492127 56 806ft 0kts
04-Sep-18 13:37 34.218684 -118.492127 56 806ft 0kts
04-Sep-18 13:38 34.215830 -118.490950 175 806ft 79kts
04-Sep-18 13:39 34.184815 -118.489005 195 1963ft 120kts
04-Sep-18 13:40 34.176369 -118.526267 269 3350ft 128kts
04-Sep-18 13:41 34.197236 -118.558732 317 4727ft 124kts
04-Sep-18 13:42 34.221904 -118.584864 291 5513ft 137kts
04-Sep-18 13:43 34.247849 -118.603342 51 5492ft 152kts
04-Sep-18 13:44 34.275267 -118.607567 261 5506ft 153kts
04-Sep-18 13:45 34.243942 -118.614824 158 5493ft 118kts
04-Sep-18 13:46 34.215548 -118.600453 155 5498ft 106kts
04-Sep-18 13:47 34.189296 -118.585477 154 5499ft 103kts
04-Sep-18 13:48 34.164704 -118.562733 137 5507ft 130kts
04-Sep-18 13:49 34.135894 -118.533410 145 5526ft 138kts
04-Sep-18 13:50 34.100895 -118.512166 157 5527ft 150kts
04-Sep-18 13:51 34.059636 -118.492260 157 5528ft 167kts
04-Sep-18 13:52 34.015660 -118.471211 157 5527ft 172kts
04-Sep-18 13:53 33.970910 -118.449818 157 5527ft 174kts
04-Sep-18 13:54 33.927889 -118.424282 134 5530ft 174kts
04-Sep-18 13:55 33.894269 -118.383385 134 5526ft 171kts
04-Sep-18 13:56 33.862617 -118.344744 134 5525ft 161kts
04-Sep-18 13:57 33.832504 -118.307940 134 5525ft 148kts
04-Sep-18 13:58 33.804212 -118.273290 134 5527ft 143kts
04-Sep-18 13:59 33.776440 -118.239250 134 5527ft 142kts
04-Sep-18 14:00 33.749111 -118.205056 118 5527ft 141kts
04-Sep-18 14:01 33.740412 -118.159585 106 5554ft 140kts
04-Sep-18 14:02 33.730649 -118.114179 102 5551ft 141kts
04-Sep-18 14:03 33.723367 -118.061748 97 4585ft 160kts
04-Sep-18 14:04 33.723564 -118.011533 76 3955ft 131kts
04-Sep-18 14:05 33.727072 -117.977825 91 3961ft 102kts
04-Sep-18 14:06 33.730912 -117.939705 71 3723ft 122kts
04-Sep-18 14:07 33.742861 -117.909713 31 2886ft 86kts
04-Sep-18 14:08 33.745082 -117.886200 115 1564ft 84kts
04-Sep-18 14:09 33.733444 -117.857449 115 1159ft 110kts
04-Sep-18 14:10 33.709137 -117.847338 203 865ft 103kts
04-Sep-18 14:11 33.685156 -117.862742 208 171ft 89kts
04-Sep-18 14:12 33.672243 -117.871777 279 60ft 2kts
04-Sep-18 14:13 33.674529 -117.871088 354 60ft 3kts
04-Sep-18 14:14 33.675188 -117.871591 37 60ft 0kts
04-Sep-18 14:15 33.675187 -117.871591 37 60ft 0kts
04-Sep-18 14:16 33.675187 -117.871591 37 60ft 0kts
04-Sep-18 14:17 33.675187 -117.871591 37 60ft 0kts
04-Sep-18 14:18 33.675187 -117.871591 37 60ft 0kts
04-Sep-18 14:20 33.675187 -117.871591 37 60ft 0kts
04-Sep-18 14:21 33.675187 -117.871591 37 60ft 0kts
04-Sep-18 14:22 33.675187 -117.871591 37 60ft 0kts
04-Sep-18 14:23 33.675187 -117.871591 37 60ft 0kts
04-Sep-18 14:24 33.675187 -117.871591 37 60ft 0kts
04-Sep-18 14:25 33.675187 -117.871591 37 60ft 0kts
04-Sep-18 14:26 33.675187 -117.871591 37 60ft 0kts
04-Sep-18 14:27 33.675187 -117.871591 37 60ft 0kts

Navigation Log

Ident Type
1. KVNY Airport
2. KSNA Airport